VKG629 GVAC-ESSA
Flight info
| Callsign | VKG629 |
|---|---|
| Flight time | N/A |
| Altitude | 23000 |
| Route | DIMKI1A DIMKI B623 IPERA/N0485F350 N873 ISOKA/N0479F370 N873 UDATI/N0477F360 DCT SAMAR/N0472F380 DCT NEVTU DCT TIGGI DCT TROIA DCT TOFEF DCT BARDI DCT ZMR DCT NUBLO DCT RONSI DCT DELOG DCT DIDIG DCT USODA DCT ERCUT DCT DITAL UN873 BAZOS DCT BELDI/N0463F390 DCT VICOT DCT BLUFA DCT OGFON DCT AMRAK DCT ADVOP DCT NEMBA DCT MIKNA N851 PELUP DCT IFCAG DCT NILUG |
| Aircraft | A339/H-SDE1E2E3GHIJ1J3J4J7RWXYZ/LB2D1 |
Departure
| Time | 2026-04-23 14:00 |
|---|---|
| Airport | Amílcar Cabral International Airport (GVAC) |
Arrival
| Time | N/A |
|---|---|
| Airport | Stockholm-Arlanda Airport (ESSA) |
| Time | Latitude | Longitude | Altitude | Speed | Heading |
|---|---|---|---|---|---|
| 2026-04-23 13:40 | 16.73495 | -22.94504 | 197 ft | 0 kts | 89° |
| 2026-04-23 13:51 | 16.73495 | -22.94512 | 196 ft | 2 kts | 89° |
| 2026-04-23 13:51 | 16.73495 | -22.94528 | 196 ft | 2 kts | 89° |
| 2026-04-23 13:51 | 16.73495 | -22.94543 | 195 ft | 2 kts | 89° |
| 2026-04-23 13:51 | 16.73495 | -22.94558 | 195 ft | 2 kts | 89° |
| 2026-04-23 13:52 | 16.73496 | -22.94574 | 196 ft | 2 kts | 112° |
| 2026-04-23 13:52 | 16.73504 | -22.94587 | 196 ft | 2 kts | 139° |
| 2026-04-23 13:52 | 16.73517 | -22.94595 | 196 ft | 2 kts | 164° |
| 2026-04-23 13:52 | 16.73526 | -22.94597 | 196 ft | 0 kts | 179° |
| 2026-04-23 13:53 | 16.73530 | -22.94597 | 196 ft | 0 kts | 180° |
| 2026-04-23 13:55 | 16.73529 | -22.94597 | 196 ft | 0 kts | 180° |
| 2026-04-23 13:55 | 16.73509 | -22.94597 | 196 ft | 4 kts | 179° |
| 2026-04-23 13:55 | 16.73462 | -22.94596 | 196 ft | 8 kts | 179° |
| 2026-04-23 13:55 | 16.73392 | -22.94595 | 196 ft | 11 kts | 179° |
| 2026-04-23 13:56 | 16.73306 | -22.94594 | 196 ft | 12 kts | 180° |
| 2026-04-23 13:56 | 16.73216 | -22.94593 | 196 ft | 13 kts | 179° |
| 2026-04-23 13:56 | 16.73122 | -22.94595 | 196 ft | 13 kts | 189° |
| 2026-04-23 13:56 | 16.73052 | -22.94659 | 196 ft | 14 kts | 234° |
| 2026-04-23 13:57 | 16.72963 | -22.94691 | 195 ft | 14 kts | 180° |
| 2026-04-23 13:57 | 16.72858 | -22.94690 | 195 ft | 15 kts | 179° |
| 2026-04-23 13:57 | 16.72749 | -22.94688 | 194 ft | 15 kts | 179° |
| 2026-04-23 13:57 | 16.72639 | -22.94687 | 194 ft | 16 kts | 179° |
| 2026-04-23 13:58 | 16.72525 | -22.94686 | 193 ft | 16 kts | 180° |
| 2026-04-23 13:58 | 16.72436 | -22.94691 | 193 ft | 9 kts | 205° |
| 2026-04-23 13:58 | 16.72405 | -22.94758 | 192 ft | 11 kts | 258° |
| 2026-04-23 13:58 | 16.72399 | -22.94846 | 192 ft | 11 kts | 274° |
| 2026-04-23 13:59 | 16.72422 | -22.94887 | 192 ft | 6 kts | 348° |
| 2026-04-23 13:59 | 16.72476 | -22.94888 | 192 ft | 8 kts | 360° |
| 2026-04-23 13:59 | 16.72539 | -22.94888 | 192 ft | 12 kts | 0° |
| 2026-04-23 13:59 | 16.72780 | -22.94887 | 194 ft | 64 kts | 0° |
| 2026-04-23 14:00 | 16.73177 | -22.94890 | 195 ft | 102 kts | 0° |
| 2026-04-23 14:00 | 16.74434 | -22.94902 | 191 ft | 165 kts | 0° |
| 2026-04-23 14:00 | 16.75667 | -22.94924 | 490 ft | 180 kts | 2° |
| 2026-04-23 14:00 | 16.76891 | -22.94941 | 1151 ft | 175 kts | 3° |
| 2026-04-23 14:01 | 16.78081 | -22.94941 | 1793 ft | 172 kts | 3° |
| 2026-04-23 14:01 | 16.79301 | -22.94939 | 2170 ft | 180 kts | 2° |
| 2026-04-23 14:01 | 16.80620 | -22.94949 | 2439 ft | 194 kts | 2° |
| 2026-04-23 14:01 | 16.82026 | -22.94961 | 2696 ft | 210 kts | 1° |
| 2026-04-23 14:02 | 16.83528 | -22.94976 | 2979 ft | 225 kts | 1° |
| 2026-04-23 14:02 | 16.85178 | -22.94993 | 3278 ft | 242 kts | 0° |
| 2026-04-23 14:02 | 16.86893 | -22.95010 | 3679 ft | 254 kts | 0° |
| 2026-04-23 14:02 | 16.88678 | -22.95027 | 4272 ft | 258 kts | 359° |
| 2026-04-23 14:03 | 16.90495 | -22.95040 | 4865 ft | 263 kts | 0° |
| 2026-04-23 14:03 | 16.92310 | -22.94710 | 5372 ft | 271 kts | 19° |
| 2026-04-23 14:03 | 16.93980 | -22.93765 | 5879 ft | 279 kts | 31° |
| 2026-04-23 14:03 | 16.95608 | -22.92587 | 6375 ft | 285 kts | 33° |
| 2026-04-23 14:04 | 16.97243 | -22.91382 | 6862 ft | 290 kts | 32° |
| 2026-04-23 14:04 | 16.98908 | -22.90158 | 7385 ft | 294 kts | 32° |
| 2026-04-23 14:04 | 17.00580 | -22.88938 | 7929 ft | 296 kts | 33° |
| 2026-04-23 14:04 | 17.02277 | -22.87703 | 8449 ft | 299 kts | 32° |
| 2026-04-23 14:05 | 17.04011 | -22.86447 | 8941 ft | 304 kts | 32° |
| 2026-04-23 14:05 | 17.05751 | -22.85187 | 9466 ft | 306 kts | 32° |
| 2026-04-23 14:05 | 17.07496 | -22.83925 | 9958 ft | 310 kts | 33° |
| 2026-04-23 14:05 | 17.09280 | -22.82635 | 10385 ft | 316 kts | 32° |
| 2026-04-23 14:06 | 17.11144 | -22.81289 | 10631 ft | 330 kts | 32° |
| 2026-04-23 14:06 | 17.13081 | -22.79891 | 10869 ft | 344 kts | 32° |
| 2026-04-23 14:06 | 17.15067 | -22.78457 | 11102 ft | 357 kts | 33° |
| 2026-04-23 14:06 | 17.17163 | -22.76941 | 11327 ft | 370 kts | 33° |
| 2026-04-23 14:07 | 17.19322 | -22.75379 | 11550 ft | 383 kts | 32° |
| 2026-04-23 14:07 | 17.23848 | -22.72103 | 12112 ft | 404 kts | 33° |
| 2026-04-23 14:07 | 17.26161 | -22.70427 | 12611 ft | 408 kts | 33° |
| 2026-04-23 14:08 | 17.28521 | -22.68718 | 13161 ft | 410 kts | 33° |
| 2026-04-23 14:08 | 17.30872 | -22.67013 | 13678 ft | 413 kts | 33° |
| 2026-04-23 14:08 | 17.33225 | -22.65305 | 14207 ft | 415 kts | 33° |
| 2026-04-23 14:08 | 17.35632 | -22.63559 | 14697 ft | 419 kts | 32° |
| 2026-04-23 14:09 | 17.38023 | -22.61824 | 15158 ft | 423 kts | 32° |
| 2026-04-23 14:09 | 17.40470 | -22.60051 | 15673 ft | 426 kts | 32° |
| 2026-04-23 14:09 | 17.42908 | -22.58280 | 16131 ft | 430 kts | 32° |
| 2026-04-23 14:09 | 17.45387 | -22.56481 | 16603 ft | 433 kts | 32° |
| 2026-04-23 14:10 | 17.47851 | -22.54690 | 17062 ft | 437 kts | 32° |
| 2026-04-23 14:10 | 17.50352 | -22.52875 | 17519 ft | 440 kts | 32° |
| 2026-04-23 14:10 | 17.52884 | -22.51034 | 17981 ft | 443 kts | 32° |
| 2026-04-23 14:10 | 17.55438 | -22.49174 | 18434 ft | 447 kts | 32° |
| 2026-04-23 14:11 | 17.57993 | -22.47316 | 18878 ft | 450 kts | 32° |
| 2026-04-23 14:11 | 17.60562 | -22.45447 | 19340 ft | 453 kts | 32° |
| 2026-04-23 14:11 | 17.63159 | -22.43561 | 19824 ft | 454 kts | 31° |
| 2026-04-23 14:11 | 17.65768 | -22.41661 | 20272 ft | 457 kts | 31° |
| 2026-04-23 14:12 | 17.68406 | -22.39741 | 20664 ft | 461 kts | 31° |
| 2026-04-23 14:12 | 17.71010 | -22.37846 | 21075 ft | 463 kts | 31° |
| 2026-04-23 14:12 | 17.73685 | -22.35898 | 21493 ft | 466 kts | 31° |
| 2026-04-23 14:12 | 17.76335 | -22.33960 | 21893 ft | 468 kts | 31° |
| 2026-04-23 14:13 | 17.79025 | -22.31999 | 22256 ft | 471 kts | 31° |
| 2026-04-23 14:13 | 17.81717 | -22.30037 | 22660 ft | 472 kts | 31° |
| 2026-04-23 14:13 | 17.84422 | -22.28064 | 23018 ft | 475 kts | 30° |
| 2026-04-23 14:13 | 17.87161 | -22.26066 | 23319 ft | 478 kts | 30° |
| 2026-04-23 14:14 | 17.89953 | -22.24155 | 23641 ft | 479 kts | 27° |
| 2026-04-23 14:14 | 17.92812 | -22.22364 | 23952 ft | 480 kts | 25° |
| 2026-04-23 14:14 | 17.95684 | -22.20596 | 24265 ft | 483 kts | 25° |
| 2026-04-23 14:14 | 17.98615 | -22.18802 | 24583 ft | 485 kts | 25° |
| 2026-04-23 14:15 | 18.01550 | -22.17006 | 24870 ft | 488 kts | 25° |
| 2026-04-23 14:15 | 18.04450 | -22.15226 | 25200 ft | 489 kts | 25° |
| 2026-04-23 14:15 | 18.07430 | -22.13394 | 25457 ft | 492 kts | 25° |
| 2026-04-23 14:15 | 18.10353 | -22.11594 | 25732 ft | 494 kts | 24° |
| 2026-04-23 14:16 | 18.13352 | -22.09747 | 25969 ft | 497 kts | 25° |
| 2026-04-23 14:16 | 18.16353 | -22.07900 | 26206 ft | 500 kts | 24° |
| 2026-04-23 14:16 | 18.19348 | -22.06053 | 26476 ft | 502 kts | 24° |
| 2026-04-23 14:16 | 18.22366 | -22.04186 | 26726 ft | 504 kts | 24° |
| 2026-04-23 14:17 | 18.25410 | -22.02307 | 26970 ft | 506 kts | 24° |
| 2026-04-23 14:17 | 18.28458 | -22.00426 | 27197 ft | 508 kts | 24° |
| 2026-04-23 14:17 | 18.31512 | -21.98540 | 27417 ft | 510 kts | 24° |
| 2026-04-23 14:17 | 18.34552 | -21.96660 | 27719 ft | 510 kts | 23° |
| 2026-04-23 14:18 | 18.37629 | -21.94752 | 28087 ft | 508 kts | 23° |
| 2026-04-23 14:18 | 18.40653 | -21.92876 | 28477 ft | 506 kts | 23° |
| 2026-04-23 14:18 | 18.43698 | -21.90992 | 28799 ft | 506 kts | 23° |
| 2026-04-23 14:18 | 18.46747 | -21.89106 | 29046 ft | 507 kts | 23° |
| 2026-04-23 14:19 | 18.49778 | -21.87231 | 29425 ft | 506 kts | 22° |
| 2026-04-23 14:19 | 18.52772 | -21.85376 | 29840 ft | 504 kts | 23° |
| 2026-04-23 14:19 | 18.55804 | -21.83497 | 30146 ft | 504 kts | 23° |
| 2026-04-23 14:19 | 18.58847 | -21.81610 | 30461 ft | 505 kts | 22° |
| 2026-04-23 14:20 | 18.61852 | -21.79745 | 30798 ft | 504 kts | 22° |
| 2026-04-23 14:20 | 18.64870 | -21.77873 | 31150 ft | 503 kts | 22° |
| 2026-04-23 14:20 | 18.67887 | -21.75999 | 31527 ft | 502 kts | 22° |
| 2026-04-23 14:20 | 18.70883 | -21.74138 | 31902 ft | 501 kts | 22° |
| 2026-04-23 14:21 | 18.73899 | -21.72261 | 32234 ft | 500 kts | 22° |
| 2026-04-23 14:21 | 18.76912 | -21.70389 | 32539 ft | 500 kts | 22° |
| 2026-04-23 14:21 | 18.79893 | -21.68533 | 32930 ft | 499 kts | 22° |
| 2026-04-23 14:21 | 18.82902 | -21.66664 | 33264 ft | 499 kts | 22° |
| 2026-04-23 14:22 | 18.85913 | -21.64795 | 33494 ft | 501 kts | 23° |
| 2026-04-23 14:22 | 18.88906 | -21.62932 | 33689 ft | 504 kts | 23° |
| 2026-04-23 14:22 | 18.91962 | -21.61030 | 33935 ft | 505 kts | 23° |
| 2026-04-23 14:22 | 18.95000 | -21.59135 | 34204 ft | 506 kts | 23° |
| 2026-04-23 14:23 | 18.98009 | -21.57258 | 34388 ft | 509 kts | 23° |
| 2026-04-23 14:23 | 19.01058 | -21.55356 | 34613 ft | 510 kts | 23° |
| 2026-04-23 14:23 | 19.04132 | -21.53439 | 34778 ft | 513 kts | 23° |
| 2026-04-23 14:23 | 19.07235 | -21.51503 | 34957 ft | 515 kts | 23° |
| 2026-04-23 14:24 | 19.13407 | -21.47645 | 35033 ft | 517 kts | 24° |
| 2026-04-23 14:24 | 19.19596 | -21.43770 | 35033 ft | 517 kts | 24° |
| 2026-04-23 14:25 | 19.25799 | -21.39885 | 35027 ft | 518 kts | 24° |
| 2026-04-23 14:25 | 19.32009 | -21.35995 | 35024 ft | 519 kts | 24° |
| 2026-04-23 14:26 | 19.38197 | -21.32114 | 35020 ft | 519 kts | 24° |
| 2026-04-23 14:26 | 19.44401 | -21.28221 | 35027 ft | 520 kts | 24° |
| 2026-04-23 14:27 | 19.50624 | -21.24311 | 35028 ft | 520 kts | 24° |
| 2026-04-23 14:27 | 19.56879 | -21.20378 | 35027 ft | 520 kts | 24° |
| 2026-04-23 14:28 | 19.63141 | -21.16437 | 35029 ft | 521 kts | 24° |
| 2026-04-23 14:28 | 19.69362 | -21.12521 | 35029 ft | 523 kts | 24° |
| 2026-04-23 14:29 | 19.75596 | -21.08588 | 35030 ft | 522 kts | 24° |
| 2026-04-23 14:29 | 19.81848 | -21.04641 | 35032 ft | 522 kts | 24° |
| 2026-04-23 14:30 | 19.88133 | -21.00676 | 35029 ft | 523 kts | 24° |
| 2026-04-23 14:30 | 19.94375 | -20.96727 | 35035 ft | 523 kts | 24° |
| 2026-04-23 14:31 | 20.00636 | -20.92763 | 35033 ft | 523 kts | 24° |
| 2026-04-23 14:31 | 20.06900 | -20.88795 | 35032 ft | 522 kts | 24° |
| 2026-04-23 14:32 | 20.13137 | -20.84839 | 35029 ft | 523 kts | 24° |
| 2026-04-23 14:32 | 20.19367 | -20.80885 | 35034 ft | 522 kts | 24° |
| 2026-04-23 14:33 | 20.25600 | -20.76928 | 35030 ft | 524 kts | 24° |
| 2026-04-23 14:33 | 20.31883 | -20.72930 | 35032 ft | 524 kts | 24° |
| 2026-04-23 14:34 | 20.38127 | -20.68953 | 35032 ft | 523 kts | 24° |
| 2026-04-23 14:34 | 20.44378 | -20.64966 | 35029 ft | 524 kts | 24° |
| 2026-04-23 14:35 | 20.50651 | -20.60960 | 35028 ft | 526 kts | 24° |
| 2026-04-23 14:35 | 20.56896 | -20.56960 | 35028 ft | 524 kts | 23° |
| 2026-04-23 14:36 | 20.63170 | -20.52945 | 35028 ft | 524 kts | 23° |
| 2026-04-23 14:36 | 20.69441 | -20.48926 | 35030 ft | 525 kts | 23° |
| 2026-04-23 14:37 | 20.75697 | -20.44912 | 35031 ft | 526 kts | 23° |
| 2026-04-23 14:37 | 20.81965 | -20.40885 | 35028 ft | 525 kts | 24° |
| 2026-04-23 14:38 | 20.88210 | -20.36870 | 35029 ft | 525 kts | 23° |
| 2026-04-23 14:38 | 20.94479 | -20.32839 | 35026 ft | 527 kts | 24° |
| 2026-04-23 14:39 | 21.00787 | -20.28777 | 35034 ft | 529 kts | 24° |
| 2026-04-23 14:39 | 21.07068 | -20.24725 | 35036 ft | 527 kts | 24° |
| 2026-04-23 14:40 | 21.13331 | -20.20681 | 35038 ft | 527 kts | 24° |
| 2026-04-23 14:40 | 21.19636 | -20.16609 | 35041 ft | 527 kts | 23° |
| 2026-04-23 14:41 | 21.25906 | -20.12559 | 35038 ft | 528 kts | 24° |
| 2026-04-23 14:41 | 21.32210 | -20.08479 | 35040 ft | 529 kts | 24° |
| 2026-04-23 14:42 | 21.38500 | -20.04398 | 35032 ft | 529 kts | 24° |
| 2026-04-23 14:42 | 21.44775 | -20.00326 | 35043 ft | 527 kts | 24° |
| 2026-04-23 14:43 | 21.51032 | -19.96264 | 35039 ft | 526 kts | 24° |
| 2026-04-23 14:43 | 21.57296 | -19.92192 | 35035 ft | 525 kts | 24° |
| 2026-04-23 14:44 | 21.63575 | -19.88109 | 35037 ft | 526 kts | 24° |
| 2026-04-23 14:44 | 21.69826 | -19.84038 | 35039 ft | 527 kts | 24° |
| 2026-04-23 14:45 | 21.76077 | -19.79963 | 35037 ft | 527 kts | 24° |
| 2026-04-23 14:45 | 21.82341 | -19.75869 | 35037 ft | 524 kts | 24° |
| 2026-04-23 14:46 | 21.88606 | -19.71781 | 35037 ft | 527 kts | 24° |
| 2026-04-23 14:46 | 21.94841 | -19.67698 | 35037 ft | 524 kts | 24° |
| 2026-04-23 14:47 | 22.01064 | -19.63626 | 35037 ft | 524 kts | 24° |
| 2026-04-23 14:47 | 22.07286 | -19.59549 | 35042 ft | 525 kts | 24° |
| 2026-04-23 14:48 | 22.13539 | -19.55445 | 35039 ft | 524 kts | 24° |
| 2026-04-23 14:48 | 22.19789 | -19.51342 | 35044 ft | 524 kts | 24° |
| 2026-04-23 14:49 | 22.26013 | -19.47249 | 35040 ft | 525 kts | 24° |
| 2026-04-23 14:49 | 22.32266 | -19.43138 | 35046 ft | 526 kts | 24° |
| 2026-04-23 14:50 | 22.38486 | -19.39037 | 35045 ft | 526 kts | 24° |
| 2026-04-23 14:50 | 22.44709 | -19.34930 | 35042 ft | 525 kts | 25° |
| 2026-04-23 14:51 | 22.51065 | -19.30736 | 35043 ft | 527 kts | 25° |
| 2026-04-23 14:51 | 22.57305 | -19.26608 | 35043 ft | 525 kts | 25° |
| 2026-04-23 14:52 | 22.63537 | -19.22485 | 35042 ft | 526 kts | 25° |
| 2026-04-23 14:52 | 22.69813 | -19.18328 | 35041 ft | 526 kts | 25° |
| 2026-04-23 14:53 | 22.76073 | -19.14175 | 35042 ft | 525 kts | 25° |
| 2026-04-23 14:53 | 22.82320 | -19.10027 | 35043 ft | 527 kts | 25° |
| 2026-04-23 14:54 | 22.88582 | -19.05864 | 35039 ft | 525 kts | 25° |
| 2026-04-23 14:54 | 22.94832 | -19.01710 | 35041 ft | 527 kts | 25° |
| 2026-04-23 14:55 | 23.01110 | -18.97525 | 35035 ft | 527 kts | 25° |
| 2026-04-23 14:55 | 23.07371 | -18.93349 | 35035 ft | 527 kts | 25° |
| 2026-04-23 14:56 | 23.13575 | -18.89208 | 35035 ft | 526 kts | 25° |
| 2026-04-23 14:56 | 23.19856 | -18.85012 | 35036 ft | 526 kts | 25° |
| 2026-04-23 14:57 | 23.26096 | -18.80836 | 35041 ft | 526 kts | 25° |
| 2026-04-23 14:57 | 23.32321 | -18.76666 | 35036 ft | 525 kts | 25° |
| 2026-04-23 14:58 | 23.38553 | -18.72487 | 35036 ft | 525 kts | 25° |
| 2026-04-23 14:58 | 23.44781 | -18.68307 | 35031 ft | 525 kts | 25° |
| 2026-04-23 14:59 | 23.51023 | -18.64114 | 35036 ft | 525 kts | 25° |
| 2026-04-23 14:59 | 23.57214 | -18.59945 | 35040 ft | 524 kts | 25° |
| 2026-04-23 15:00 | 23.63410 | -18.55773 | 35035 ft | 523 kts | 25° |
| 2026-04-23 15:00 | 23.69591 | -18.51607 | 35032 ft | 522 kts | 25° |
| 2026-04-23 15:01 | 23.75780 | -18.47428 | 35038 ft | 523 kts | 25° |
| 2026-04-23 15:01 | 23.81999 | -18.43226 | 35039 ft | 522 kts | 25° |
| 2026-04-23 15:02 | 23.88166 | -18.39053 | 35036 ft | 523 kts | 25° |
| 2026-04-23 15:02 | 23.94362 | -18.34854 | 35039 ft | 521 kts | 26° |
| 2026-04-23 15:03 | 24.00539 | -18.30666 | 35048 ft | 521 kts | 26° |
| 2026-04-23 15:03 | 24.06705 | -18.26480 | 35047 ft | 521 kts | 26° |
| 2026-04-23 15:04 | 24.12866 | -18.22290 | 35053 ft | 520 kts | 26° |
| 2026-04-23 15:04 | 24.19036 | -18.18093 | 35042 ft | 521 kts | 26° |
| 2026-04-23 15:05 | 24.25167 | -18.13915 | 35053 ft | 520 kts | 26° |
| 2026-04-23 15:05 | 24.31292 | -18.09738 | 35048 ft | 519 kts | 26° |
| 2026-04-23 15:06 | 24.37465 | -18.05524 | 35051 ft | 520 kts | 26° |
| 2026-04-23 15:06 | 24.43579 | -18.01342 | 35054 ft | 519 kts | 26° |
| 2026-04-23 15:07 | 24.49700 | -17.97156 | 35043 ft | 519 kts | 26° |
| 2026-04-23 15:07 | 24.55845 | -17.92943 | 35043 ft | 518 kts | 26° |
| 2026-04-23 15:08 | 24.61933 | -17.88766 | 35036 ft | 518 kts | 26° |
| 2026-04-23 15:09 | 24.71094 | -17.82472 | 35040 ft | 517 kts | 26° |
| 2026-04-23 15:09 | 24.77203 | -17.78268 | 35047 ft | 516 kts | 26° |
| 2026-04-23 15:10 | 24.83256 | -17.74099 | 35042 ft | 516 kts | 26° |
| 2026-04-23 15:10 | 24.89358 | -17.69892 | 35031 ft | 516 kts | 26° |
| 2026-04-23 15:11 | 24.95438 | -17.65693 | 35036 ft | 517 kts | 26° |
| 2026-04-23 15:11 | 25.01557 | -17.61460 | 35039 ft | 516 kts | 26° |
| 2026-04-23 15:12 | 25.07610 | -17.57268 | 35041 ft | 516 kts | 26° |
| 2026-04-23 15:12 | 25.13693 | -17.53046 | 35047 ft | 516 kts | 26° |
| 2026-04-23 15:13 | 25.19777 | -17.48821 | 35043 ft | 514 kts | 26° |
| 2026-04-23 15:13 | 25.25824 | -17.44617 | 35042 ft | 515 kts | 26° |
| 2026-04-23 15:14 | 25.31908 | -17.40380 | 35043 ft | 514 kts | 26° |
| 2026-04-23 15:14 | 25.37933 | -17.36182 | 35051 ft | 513 kts | 26° |
| 2026-04-23 15:15 | 25.43980 | -17.31962 | 35044 ft | 514 kts | 26° |
| 2026-04-23 15:15 | 25.49985 | -17.27763 | 35039 ft | 512 kts | 26° |
| 2026-04-23 15:16 | 25.56017 | -17.23543 | 35046 ft | 512 kts | 26° |
| 2026-04-23 15:16 | 25.62032 | -17.19333 | 35054 ft | 512 kts | 26° |
| 2026-04-23 15:17 | 25.68028 | -17.15127 | 35047 ft | 512 kts | 26° |
| 2026-04-23 15:17 | 25.74076 | -17.10881 | 35047 ft | 512 kts | 26° |
| 2026-04-23 15:18 | 25.80086 | -17.06654 | 35042 ft | 514 kts | 26° |
| 2026-04-23 15:18 | 25.86089 | -17.02428 | 35056 ft | 512 kts | 26° |
| 2026-04-23 15:19 | 25.92125 | -16.98175 | 35036 ft | 512 kts | 26° |
| 2026-04-23 15:19 | 25.98123 | -16.93943 | 35052 ft | 511 kts | 26° |
| 2026-04-23 15:20 | 26.04100 | -16.89722 | 35034 ft | 510 kts | 26° |
| 2026-04-23 15:20 | 26.10123 | -16.85461 | 35040 ft | 511 kts | 26° |
| 2026-04-23 15:21 | 26.16124 | -16.81215 | 35044 ft | 510 kts | 26° |
| 2026-04-23 15:21 | 26.22270 | -16.77443 | 35040 ft | 503 kts | 19° |
| 2026-04-23 15:22 | 26.28655 | -16.74294 | 35052 ft | 501 kts | 16° |
| 2026-04-23 15:22 | 26.35060 | -16.71233 | 35428 ft | 500 kts | 16° |
| 2026-04-23 15:22 | 26.38284 | -16.69687 | 35701 ft | 499 kts | 16° |
| 2026-04-23 15:23 | 26.41460 | -16.68160 | 35914 ft | 500 kts | 16° |
| 2026-04-23 15:23 | 26.44642 | -16.66628 | 36031 ft | 502 kts | 16° |
| 2026-04-23 15:23 | 26.47880 | -16.65067 | 36037 ft | 503 kts | 16° |
| 2026-04-23 15:24 | 26.54326 | -16.61953 | 36041 ft | 504 kts | 16° |
| 2026-04-23 15:24 | 26.60734 | -16.58852 | 36054 ft | 504 kts | 16° |
| 2026-04-23 15:25 | 26.67160 | -16.55737 | 36056 ft | 503 kts | 16° |
| 2026-04-23 15:25 | 26.73567 | -16.52625 | 36048 ft | 502 kts | 16° |
| 2026-04-23 15:26 | 26.79984 | -16.49509 | 36046 ft | 501 kts | 16° |
| 2026-04-23 15:26 | 26.86384 | -16.46394 | 36048 ft | 501 kts | 16° |
| 2026-04-23 15:27 | 26.92759 | -16.43291 | 36051 ft | 502 kts | 16° |
| 2026-04-23 15:27 | 26.99140 | -16.40175 | 36050 ft | 499 kts | 16° |
| 2026-04-23 15:28 | 27.05534 | -16.37055 | 36055 ft | 500 kts | 16° |
| 2026-04-23 15:28 | 27.11909 | -16.33935 | 36049 ft | 500 kts | 16° |
| 2026-04-23 15:29 | 27.18255 | -16.30830 | 36046 ft | 499 kts | 16° |
| 2026-04-23 15:29 | 27.24623 | -16.27709 | 36059 ft | 498 kts | 16° |
| 2026-04-23 15:30 | 27.30978 | -16.24591 | 36049 ft | 498 kts | 16° |
| 2026-04-23 15:30 | 27.37316 | -16.21474 | 36042 ft | 498 kts | 16° |
| 2026-04-23 15:31 | 27.43657 | -16.18356 | 36051 ft | 497 kts | 17° |
| 2026-04-23 15:31 | 27.50028 | -16.15218 | 36048 ft | 497 kts | 16° |
| 2026-04-23 15:32 | 27.56320 | -16.12110 | 36042 ft | 495 kts | 16° |
| 2026-04-23 15:32 | 27.62634 | -16.08995 | 36038 ft | 495 kts | 16° |
| 2026-04-23 15:33 | 27.68916 | -16.05887 | 36051 ft | 495 kts | 16° |
| 2026-04-23 15:33 | 27.75233 | -16.02760 | 36050 ft | 494 kts | 16° |
| 2026-04-23 15:34 | 27.81533 | -15.99636 | 36037 ft | 493 kts | 16° |
| 2026-04-23 15:34 | 27.87839 | -15.96508 | 36050 ft | 493 kts | 16° |
| 2026-04-23 15:35 | 27.94124 | -15.93383 | 36036 ft | 493 kts | 16° |
| 2026-04-23 15:35 | 28.00391 | -15.90265 | 36046 ft | 492 kts | 16° |
| 2026-04-23 15:36 | 28.06656 | -15.87141 | 36045 ft | 491 kts | 16° |
| 2026-04-23 15:36 | 28.12908 | -15.84022 | 36046 ft | 491 kts | 16° |
| 2026-04-23 15:37 | 28.19146 | -15.80906 | 36049 ft | 491 kts | 16° |
| 2026-04-23 15:37 | 28.25356 | -15.77799 | 36051 ft | 491 kts | 16° |
| 2026-04-23 15:38 | 28.31588 | -15.74679 | 36054 ft | 489 kts | 16° |
| 2026-04-23 15:38 | 28.37854 | -15.71535 | 36054 ft | 490 kts | 16° |
| 2026-04-23 15:39 | 28.44063 | -15.68418 | 36044 ft | 490 kts | 16° |
| 2026-04-23 15:39 | 28.50307 | -15.65279 | 36035 ft | 490 kts | 16° |
| 2026-04-23 15:40 | 28.56513 | -15.62152 | 36052 ft | 489 kts | 15° |
| 2026-04-23 15:40 | 28.62730 | -15.59019 | 35813 ft | 489 kts | 15° |
| 2026-04-23 15:40 | 28.65869 | -15.57435 | 35959 ft | 491 kts | 15° |
| 2026-04-23 15:41 | 28.69009 | -15.55847 | 36015 ft | 491 kts | 15° |
| 2026-04-23 15:41 | 28.75254 | -15.52691 | 36048 ft | 491 kts | 15° |
| 2026-04-23 15:42 | 28.81475 | -15.49540 | 36067 ft | 490 kts | 15° |
| 2026-04-23 15:42 | 28.87693 | -15.46387 | 36058 ft | 490 kts | 15° |
| 2026-04-23 15:43 | 28.93922 | -15.43228 | 36062 ft | 490 kts | 15° |
| 2026-04-23 15:43 | 29.00175 | -15.40049 | 36067 ft | 490 kts | 15° |
| 2026-04-23 15:44 | 29.06351 | -15.36907 | 36064 ft | 489 kts | 15° |
| 2026-04-23 15:44 | 29.12598 | -15.33725 | 36058 ft | 489 kts | 16° |
| 2026-04-23 15:45 | 29.18783 | -15.30570 | 36057 ft | 489 kts | 16° |
| 2026-04-23 15:45 | 29.24985 | -15.27403 | 36062 ft | 489 kts | 16° |
| 2026-04-23 15:46 | 29.31211 | -15.24218 | 36057 ft | 489 kts | 16° |
| 2026-04-23 15:46 | 29.37447 | -15.21024 | 36051 ft | 490 kts | 16° |
| 2026-04-23 15:47 | 29.43683 | -15.17826 | 36059 ft | 489 kts | 16° |
| 2026-04-23 15:47 | 29.49871 | -15.14647 | 36056 ft | 489 kts | 15° |
| 2026-04-23 15:48 | 29.56092 | -15.11447 | 36055 ft | 488 kts | 15° |
| 2026-04-23 15:48 | 29.62295 | -15.08256 | 36056 ft | 489 kts | 15° |
| 2026-04-23 15:49 | 29.68512 | -15.05050 | 36056 ft | 489 kts | 15° |
| 2026-04-23 15:49 | 29.74714 | -15.01846 | 36053 ft | 488 kts | 15° |
| 2026-04-23 15:50 | 29.80917 | -14.98641 | 36058 ft | 489 kts | 15° |
| 2026-04-23 15:50 | 29.87136 | -14.95421 | 36057 ft | 489 kts | 15° |
| 2026-04-23 15:51 | 29.93334 | -14.92207 | 36053 ft | 489 kts | 15° |
| 2026-04-23 15:51 | 29.99533 | -14.88989 | 36053 ft | 489 kts | 15° |
| 2026-04-23 15:52 | 30.05719 | -14.85771 | 36053 ft | 488 kts | 15° |
| 2026-04-23 15:52 | 30.11921 | -14.82544 | 36053 ft | 489 kts | 15° |
| 2026-04-23 15:53 | 30.18106 | -14.79319 | 36057 ft | 489 kts | 15° |
| 2026-04-23 15:53 | 30.24330 | -14.76071 | 36051 ft | 490 kts | 15° |
| 2026-04-23 15:54 | 30.30528 | -14.72831 | 36055 ft | 489 kts | 15° |
| 2026-04-23 15:54 | 30.36726 | -14.69587 | 36054 ft | 489 kts | 16° |
| 2026-04-23 15:55 | 30.42939 | -14.66328 | 36052 ft | 489 kts | 16° |
| 2026-04-23 15:55 | 30.49131 | -14.63078 | 36053 ft | 489 kts | 16° |
| 2026-04-23 15:56 | 30.55305 | -14.59833 | 36053 ft | 489 kts | 15° |
| 2026-04-23 15:56 | 30.61487 | -14.56579 | 36051 ft | 489 kts | 16° |
| 2026-04-23 15:57 | 30.67722 | -14.53292 | 36052 ft | 490 kts | 16° |
| 2026-04-23 15:57 | 30.73935 | -14.50011 | 36054 ft | 490 kts | 16° |
| 2026-04-23 15:58 | 30.80123 | -14.46740 | 36056 ft | 491 kts | 16° |
| 2026-04-23 15:58 | 30.86334 | -14.43451 | 36060 ft | 490 kts | 16° |
| 2026-04-23 15:59 | 30.92518 | -14.40147 | 36054 ft | 490 kts | 17° |
| 2026-04-23 15:59 | 30.98674 | -14.36758 | 36052 ft | 492 kts | 17° |
| 2026-04-23 16:00 | 31.04869 | -14.33332 | 36046 ft | 492 kts | 17° |
| 2026-04-23 16:00 | 31.11030 | -14.29929 | 36047 ft | 492 kts | 17° |
| 2026-04-23 16:01 | 31.17244 | -14.26494 | 36044 ft | 492 kts | 17° |
| 2026-04-23 16:01 | 31.23423 | -14.23076 | 36035 ft | 493 kts | 18° |
| 2026-04-23 16:02 | 31.29585 | -14.19664 | 36033 ft | 493 kts | 18° |
| 2026-04-23 16:02 | 31.35800 | -14.16215 | 36033 ft | 493 kts | 18° |
| 2026-04-23 16:03 | 31.42004 | -14.12767 | 36030 ft | 494 kts | 18° |
| 2026-04-23 16:03 | 31.48201 | -14.09317 | 36028 ft | 494 kts | 18° |
| 2026-04-23 16:04 | 31.54375 | -14.05875 | 36032 ft | 494 kts | 18° |
| 2026-04-23 16:04 | 31.60593 | -14.02407 | 36035 ft | 495 kts | 18° |
| 2026-04-23 16:05 | 31.65755 | -13.99521 | 36031 ft | 495 kts | 18° |
| 2026-04-23 16:05 | 31.73037 | -13.95445 | 36032 ft | 495 kts | 18° |
| 2026-04-23 16:06 | 31.79237 | -13.91970 | 36029 ft | 497 kts | 18° |
| 2026-04-23 16:06 | 31.85495 | -13.88456 | 36032 ft | 496 kts | 18° |
| 2026-04-23 16:07 | 31.91707 | -13.84961 | 36033 ft | 496 kts | 18° |
| 2026-04-23 16:07 | 31.97916 | -13.81465 | 36032 ft | 496 kts | 18° |
| 2026-04-23 16:08 | 32.04162 | -13.77943 | 36035 ft | 496 kts | 18° |
| 2026-04-23 16:08 | 32.10411 | -13.74413 | 36039 ft | 497 kts | 19° |
| 2026-04-23 16:09 | 32.16615 | -13.70907 | 36034 ft | 498 kts | 19° |
| 2026-04-23 16:09 | 32.22854 | -13.67375 | 36035 ft | 498 kts | 19° |
| 2026-04-23 16:10 | 32.29113 | -13.63824 | 36041 ft | 498 kts | 19° |
| 2026-04-23 16:10 | 32.35365 | -13.60271 | 36036 ft | 499 kts | 19° |
| 2026-04-23 16:11 | 32.41577 | -13.56736 | 36036 ft | 498 kts | 19° |
| 2026-04-23 16:11 | 32.47844 | -13.53162 | 36028 ft | 498 kts | 19° |
| 2026-04-23 16:12 | 32.54084 | -13.49598 | 36033 ft | 499 kts | 19° |
| 2026-04-23 16:12 | 32.60336 | -13.46025 | 36030 ft | 499 kts | 20° |
| 2026-04-23 16:13 | 32.66557 | -13.42462 | 36044 ft | 499 kts | 20° |
| 2026-04-23 16:13 | 32.75949 | -13.37072 | 36039 ft | 501 kts | 20° |
| 2026-04-23 16:14 | 32.82226 | -13.33464 | 36028 ft | 501 kts | 21° |
| 2026-04-23 16:14 | 32.88488 | -13.29855 | 36028 ft | 501 kts | 21° |
| 2026-04-23 16:15 | 32.94780 | -13.26228 | 36018 ft | 501 kts | 21° |
| 2026-04-23 16:15 | 33.00889 | -13.22237 | 36026 ft | 506 kts | 27° |
| 2026-04-23 16:16 | 33.06864 | -13.17813 | 36031 ft | 506 kts | 28° |
| 2026-04-23 16:16 | 33.12808 | -13.13372 | 36029 ft | 506 kts | 28° |
| 2026-04-23 16:17 | 33.18772 | -13.08922 | 36040 ft | 506 kts | 28° |
| 2026-04-23 16:17 | 33.24749 | -13.04461 | 36025 ft | 506 kts | 28° |
| 2026-04-23 16:18 | 33.30724 | -12.99999 | 36029 ft | 507 kts | 28° |
| 2026-04-23 16:18 | 33.36679 | -12.95544 | 36038 ft | 507 kts | 28° |
| 2026-04-23 16:19 | 33.42675 | -12.91051 | 36032 ft | 508 kts | 28° |
| 2026-04-23 16:19 | 33.48621 | -12.86587 | 36027 ft | 508 kts | 28° |
| 2026-04-23 16:20 | 33.54613 | -12.82086 | 36027 ft | 508 kts | 28° |
| 2026-04-23 16:20 | 33.60584 | -12.77590 | 36030 ft | 508 kts | 29° |
| 2026-04-23 16:21 | 33.66614 | -12.73042 | 36021 ft | 509 kts | 29° |
| 2026-04-23 16:21 | 33.72584 | -12.68533 | 36027 ft | 508 kts | 29° |
| 2026-04-23 16:22 | 33.78526 | -12.64037 | 36027 ft | 508 kts | 29° |
| 2026-04-23 16:22 | 33.84501 | -12.59509 | 36020 ft | 507 kts | 30° |
| 2026-04-23 16:23 | 33.90455 | -12.54990 | 36020 ft | 507 kts | 30° |
| 2026-04-23 16:23 | 33.96415 | -12.50455 | 36016 ft | 506 kts | 30° |
| 2026-04-23 16:24 | 34.02375 | -12.45914 | 36020 ft | 506 kts | 30° |
| 2026-04-23 16:24 | 34.08289 | -12.41402 | 36016 ft | 507 kts | 30° |
| 2026-04-23 16:25 | 34.14262 | -12.36837 | 36022 ft | 507 kts | 30° |
| 2026-04-23 16:25 | 34.20209 | -12.32286 | 36026 ft | 508 kts | 31° |
| 2026-04-23 16:26 | 34.26177 | -12.27708 | 36038 ft | 507 kts | 31° |
| 2026-04-23 16:26 | 34.32145 | -12.23124 | 36036 ft | 508 kts | 31° |
| 2026-04-23 16:27 | 34.38082 | -12.18554 | 36033 ft | 508 kts | 31° |
| 2026-04-23 16:27 | 34.44021 | -12.13977 | 36028 ft | 508 kts | 31° |
| 2026-04-23 16:28 | 34.49986 | -12.09370 | 36032 ft | 508 kts | 31° |
| 2026-04-23 16:28 | 34.55947 | -12.04761 | 36032 ft | 507 kts | 31° |
| 2026-04-23 16:29 | 34.61896 | -12.00151 | 36024 ft | 508 kts | 31° |
| 2026-04-23 16:29 | 34.67835 | -11.95541 | 36039 ft | 509 kts | 32° |
| 2026-04-23 16:30 | 34.73768 | -11.90928 | 36045 ft | 509 kts | 32° |
| 2026-04-23 16:30 | 34.79736 | -11.86280 | 36043 ft | 508 kts | 32° |
| 2026-04-23 16:31 | 34.85685 | -11.81638 | 36037 ft | 508 kts | 32° |
| 2026-04-23 16:31 | 34.91611 | -11.77006 | 36044 ft | 508 kts | 32° |
| 2026-04-23 16:32 | 34.97554 | -11.72353 | 36048 ft | 508 kts | 32° |
| 2026-04-23 16:32 | 35.03499 | -11.67691 | 36043 ft | 508 kts | 32° |
| 2026-04-23 16:33 | 35.09408 | -11.63049 | 36047 ft | 508 kts | 32° |
| 2026-04-23 16:33 | 35.15367 | -11.58358 | 36031 ft | 508 kts | 32° |
| 2026-04-23 16:34 | 35.21311 | -11.53672 | 36035 ft | 508 kts | 32° |
| 2026-04-23 16:34 | 35.27218 | -11.49007 | 36035 ft | 508 kts | 32° |
| 2026-04-23 16:35 | 35.33142 | -11.44319 | 36032 ft | 508 kts | 32° |
| 2026-04-23 16:35 | 35.39068 | -11.39622 | 36027 ft | 508 kts | 32° |